Time;durP1;ratioP1;P1;durP2;ratioP2;P2;SDS_P1;SDS_P2;PMS_P1;PMS_P2;Temp;Humidity;BMP_temperature;BMP_pressure;BME280_temperature;BME280_humidity;BME280_pressure;Samples;Min_cycle;Max_cycle;Signal;HPM_P1;HPM_P2
2021/07/20 00:02:20;;;;;;;;;;;;;;;19.32;72.42;98217.69;1733663;82;22877;-88
2021/07/20 00:04:53;;;;;;;;;;;;;;;19.25;72.42;98217.22;1713253;83;21780;-88
2021/07/20 00:07:19;;;;;;;;;;;;;;;19.21;72.42;98218.03;1714680;83;24504;-88
2021/07/20 00:09:45;;;;;;;;;;;;;;;19.27;72.46;98213.88;1738703;82;20248;-88
2021/07/20 00:12:11;;;;;;;;;;;;;;;19.29;72.45;98208.75;1712852;83;20273;-88
2021/07/20 00:14:42;;;;;;;;;;;;;;;19.22;72.47;98209.08;1715319;83;22090;-89
2021/07/20 00:17:08;;;;;;;;;;;;;;;19.14;72.47;98210.42;1737359;82;26055;-88
2021/07/20 00:19:39;;;;;;;;;;;;;;;19.07;72.46;98206.77;1738020;82;24509;-87
2021/07/20 00:22:08;;;;;;;;;;;;;;;19.02;72.42;98211.75;1738814;82;20176;-88
2021/07/20 00:24:34;;;;;;;;;;;;;;;18.98;72.42;98211.26;1718911;83;24989;-87
2021/07/20 00:27:00;;;;;;;;;;;;;;;18.94;72.42;98209.08;1715427;83;22078;-87
2021/07/20 00:29:26;;;;;;;;;;;;;;;18.84;72.41;98200.45;1716860;82;21032;-87
2021/07/20 00:31:52;;;;;;;;;;;;;;;18.77;72.41;98198.45;1723563;82;20244;-87
2021/07/20 00:34:18;;;;;;;;;;;;;;;18.71;72.42;98191.16;1733094;82;20366;-87
2021/07/20 00:36:44;;;;;;;;;;;;;;;18.70;72.41;98192.67;1732825;82;20878;-87
2021/07/20 00:39:10;;;;;;;;;;;;;;;18.70;72.42;98196.65;1714564;83;20840;-87
2021/07/20 00:41:38;;;;;;;;;;;;;;;18.68;72.42;98199.45;1710006;83;20983;-87
2021/07/20 00:44:08;;;;;;;;;;;;;;;18.65;72.41;98194.98;1713860;83;25257;-87
2021/07/20 00:46:34;;;;;;;;;;;;;;;18.60;72.42;98196.77;1713879;83;20158;-87
2021/07/20 00:49:12;;;;;;;;;;;;;;;18.56;72.43;98195.45;1729372;82;25128;-87
2021/07/20 00:51:44;;;;;;;;;;;;;;;18.56;72.43;98192.80;1729289;82;22087;-87
2021/07/20 00:54:10;;;;;;;;;;;;;;;18.49;72.46;98185.65;1727877;82;26000;-87
2021/07/20 00:56:36;;;;;;;;;;;;;;;18.46;72.50;98181.98;1726422;82;24434;-87
2021/07/20 00:59:02;;;;;;;;;;;;;;;18.43;72.54;98184.48;1728252;82;20420;-88
2021/07/20 01:01:35;;;;;;;;;;;;;;;18.39;72.57;98180.47;1728514;81;25191;-87
2021/07/20 01:04:01;;;;;;;;;;;;;;;18.27;72.58;98185.24;1727147;82;22095;-88
2021/07/20 01:06:27;;;;;;;;;;;;;;;18.25;72.65;98183.77;1730336;82;21083;-87
2021/07/20 01:08:56;;;;;;;;;;;;;;;18.31;72.69;98183.95;1743860;80;24886;-88
2021/07/20 01:11:25;;;;;;;;;;;;;;;18.35;72.73;98186.60;1753307;80;20249;-87
2021/07/20 01:13:51;;;;;;;;;;;;;;;18.37;72.74;98188.61;1721513;82;25087;-88
2021/07/20 01:16:19;;;;;;;;;;;;;;;18.39;72.78;98186.61;1701597;84;22012;-88
2021/07/20 01:18:45;;;;;;;;;;;;;;;18.38;72.79;98180.97;1733762;81;21041;-87
2021/07/20 01:21:13;;;;;;;;;;;;;;;18.44;72.80;98187.44;1730399;82;24553;-87
2021/07/20 01:23:51;;;;;;;;;;;;;;;18.44;72.83;98186.11;1733586;82;20272;-88
2021/07/20 01:26:13;;;;;;;;;;;;;;;18.37;72.86;98183.31;1720734;83;24846;-88
2021/07/20 01:28:40;;;;;;;;;;;;;;;18.31;72.88;98181.30;1723068;83;22163;-88
2021/07/20 01:31:08;;;;;;;;;;;;;;;18.30;72.91;98184.11;1711437;83;25998;-87
2021/07/20 01:33:36;;;;;;;;;;;;;;;18.25;72.95;98188.57;1712561;83;24601;-87
2021/07/20 01:36:08;;;;;;;;;;;;;;;18.22;72.97;98194.17;1706156;83;20230;-88
2021/07/20 01:38:32;;;;;;;;;;;;;;;18.24;73.06;98189.55;1679696;85;25804;-87
2021/07/20 01:41:00;;;;;;;;;;;;;;;18.28;73.12;98188.72;1671468;86;21869;-87
2021/07/20 01:43:27;;;;;;;;;;;;;;;18.29;73.17;98182.44;1680856;84;26024;-89
2021/07/20 01:46:02;;;;;;;;;;;;;;;18.32;73.21;98178.99;1706305;83;24497;-88
2021/07/20 01:48:32;;;;;;;;;;;;;;;18.34;73.25;98177.48;1701400;83;20161;-88
2021/07/20 01:51:05;;;;;;;;;;;;;;;18.30;73.32;98181.45;1682213;84;25558;-89
2021/07/20 01:53:40;;;;;;;;;;;;;;;18.22;73.32;98186.75;1671261;86;22166;-88
2021/07/20 01:56:07;;;;;;;;;;;;;;;18.25;73.37;98183.77;1687108;84;25463;-88
2021/07/20 01:58:37;;;;;;;;;;;;;;;18.29;73.43;98178.47;1685334;84;24593;-88
2021/07/20 02:01:05;;;;;;;;;;;;;;;18.26;73.46;98180.13;1689314;84;20224;-88
2021/07/20 02:09:06;;;;;;;;;;;;;;;18.15;73.51;98192.34;1685275;84;26013;-88
2021/07/20 02:11:41;;;;;;;;;;;;;;;18.09;73.52;98187.69;1664822;84;21060;-88
2021/07/20 02:14:22;;;;;;;;;;;;;;;18.06;73.54;98189.31;1689306;84;20520;-88
2021/07/20 02:16:55;;;;;;;;;;;;;;;18.03;73.51;98185.18;1685188;84;25590;-89
2021/07/20 02:19:37;;;;;;;;;;;;;;;17.95;73.50;98188.61;1689937;84;22822;-88
2021/07/20 02:22:04;;;;;;;;;;;;;;;17.91;73.50;98183.31;1689609;84;27247;-89
2021/07/20 02:24:33;;;;;;;;;;;;;;;17.85;73.52;98187.91;1685652;84;25365;-88
2021/07/20 02:27:13;;;;;;;;;;;;;;;17.88;73.53;98187.61;1690167;84;20188;-88
2021/07/20 02:29:40;;;;;;;;;;;;;;;17.94;73.55;98189.63;1746364;81;25114;-88
2021/07/20 02:32:15;;;;;;;;;;;;;;;17.92;73.59;98188.11;1764141;81;22109;-88
2021/07/20 02:34:48;;;;;;;;;;;;;;;17.94;73.61;98190.95;1761582;81;26141;-89
2021/07/20 02:37:14;;;;;;;;;;;;;;;18.02;73.63;98184.01;1760119;81;24682;-88
2021/07/20 02:39:43;;;;;;;;;;;;;;;18.08;73.64;98176.26;1762844;80;20335;-88
2021/07/20 02:42:12;;;;;;;;;;;;;;;18.10;73.69;98184.05;1760585;81;24983;-88
2021/07/20 02:44:47;;;;;;;;;;;;;;;18.10;73.70;98188.86;1760104;81;22656;-88
2021/07/20 02:47:14;;;;;;;;;;;;;;;18.12;73.74;98192.64;1762345;81;26069;-88
2021/07/20 02:49:41;;;;;;;;;;;;;;;18.16;73.77;98194.01;1762503;81;24598;-88
2021/07/20 02:52:07;;;;;;;;;;;;;;;18.14;73.80;98192.84;1763210;81;20338;-88
2021/07/20 02:54:34;;;;;;;;;;;;;;;18.11;73.81;98189.69;1761360;81;25101;-88
2021/07/20 02:57:01;;;;;;;;;;;;;;;18.07;73.84;98195.78;1762326;81;21983;-88
2021/07/20 02:59:39;;;;;;;;;;;;;;;18.00;73.85;98193.46;1762055;81;26088;-88
2021/07/20 03:02:06;;;;;;;;;;;;;;;17.90;73.83;98194.05;1763483;79;24414;-88
2021/07/20 03:04:32;;;;;;;;;;;;;;;17.78;73.81;98186.87;1761507;81;20261;-88
2021/07/20 03:07:04;;;;;;;;;;;;;;;17.70;73.80;98185.53;1761789;80;25067;-89
2021/07/20 03:09:33;;;;;;;;;;;;;;;17.72;73.81;98193.33;1759966;81;21403;-88
2021/07/20 03:12:01;;;;;;;;;;;;;;;17.71;73.81;98191.66;1762192;81;25989;-88
2021/07/20 03:14:30;;;;;;;;;;;;;;;17.75;73.81;98192.99;1760369;81;25230;-88
2021/07/20 03:16:57;;;;;;;;;;;;;;;17.78;73.78;98194.81;1761280;81;20325;-88
2021/07/20 03:19:24;;;;;;;;;;;;;;;17.83;73.74;98195.70;1763669;81;24812;-87
2021/07/20 03:21:55;;;;;;;;;;;;;;;17.86;73.76;98195.36;1761344;81;22156;-87
2021/07/20 03:24:24;;;;;;;;;;;;;;;17.86;73.75;98191.39;1760860;81;26687;-87
2021/07/20 03:26:52;;;;;;;;;;;;;;;17.82;73.78;98196.19;1761764;81;23979;-88
2021/07/20 03:29:22;;;;;;;;;;;;;;;17.82;73.80;98191.38;1772539;79;20215;-88
2021/07/20 03:31:54;;;;;;;;;;;;;;;17.81;73.82;98191.88;1759243;80;25199;-88
2021/07/20 03:34:21;;;;;;;;;;;;;;;17.81;73.85;98191.04;1760467;81;21958;-88
2021/07/20 03:36:48;;;;;;;;;;;;;;;17.77;73.85;98197.16;1764037;81;26161;-88
2021/07/20 03:39:16;;;;;;;;;;;;;;;17.79;73.88;98193.84;1757173;81;24486;-88
2021/07/20 03:41:43;;;;;;;;;;;;;;;17.79;73.92;98193.00;1763105;81;20199;-88
2021/07/20 03:44:10;;;;;;;;;;;;;;;17.77;73.96;98191.86;1763057;81;25199;-88
2021/07/20 03:46:42;;;;;;;;;;;;;;;17.64;74.01;98194.59;1761872;81;21424;-88
2021/07/20 03:49:12;;;;;;;;;;;;;;;17.50;74.08;98198.62;1761159;81;25991;-88
2021/07/20 03:51:42;;;;;;;;;;;;;;;17.51;74.16;98206.39;1762785;81;25307;-88
2021/07/20 03:54:12;;;;;;;;;;;;;;;17.60;74.25;98203.84;1764723;81;20267;-88
2021/07/20 03:56:40;;;;;;;;;;;;;;;17.64;74.35;98190.12;1759707;81;25052;-89
2021/07/20 03:59:08;;;;;;;;;;;;;;;17.58;74.43;98192.05;1762856;81;22090;-89
2021/07/20 04:01:36;;;;;;;;;;;;;;;17.59;74.48;98185.77;1761602;81;26035;-89
2021/07/20 04:04:11;;;;;;;;;;;;;;;17.56;74.50;98187.42;1728780;82;25300;-88
2021/07/20 04:06:44;;;;;;;;;;;;;;;17.49;74.48;98191.67;1713953;82;20326;-88
2021/07/20 04:09:20;;;;;;;;;;;;;;;17.54;74.46;98186.25;1767315;80;24953;-88
2021/07/20 04:11:52;;;;;;;;;;;;;;;17.66;74.48;98186.84;1765638;81;21999;-88
2021/07/20 04:14:25;;;;;;;;;;;;;;;17.63;74.46;98175.23;1763937;81;26540;-89
2021/07/20 04:16:53;;;;;;;;;;;;;;;17.58;74.40;98185.43;1763636;81;24583;-89
2021/07/20 04:19:20;;;;;;;;;;;;;;;17.57;74.39;98179.30;1735898;81;20453;-88
2021/07/20 04:21:46;;;;;;;;;;;;;;;17.54;74.37;98179.63;1764855;81;24976;-89
2021/07/20 04:24:18;;;;;;;;;;;;;;;17.54;74.33;98182.28;1760046;81;22207;-88
2021/07/20 04:26:47;;;;;;;;;;;;;;;17.57;74.31;98182.44;1765136;81;25995;-89
2021/07/20 04:29:13;;;;;;;;;;;;;;;17.66;74.28;98176.75;1762406;81;24636;-87
2021/07/20 04:31:41;;;;;;;;;;;;;;;17.75;74.23;98179.27;1741592;80;33486;-88
2021/07/20 04:34:09;;;;;;;;;;;;;;;17.78;74.19;98176.81;1773061;80;25811;-87
2021/07/20 04:36:36;;;;;;;;;;;;;;;17.76;74.11;98181.42;1774143;79;22907;-87
2021/07/20 04:39:06;;;;;;;;;;;;;;;17.79;74.08;98185.89;1770722;80;26172;-87
2021/07/20 04:41:32;;;;;;;;;;;;;;;17.85;73.99;98192.38;1771283;80;24454;-87
2021/07/20 04:43:58;;;;;;;;;;;;;;;17.88;73.93;98197.38;1775303;80;20472;-87
2021/07/20 04:46:24;;;;;;;;;;;;;;;17.86;73.85;98192.72;1773121;80;25001;-87
2021/07/20 04:48:50;;;;;;;;;;;;;;;17.88;73.77;98192.08;1771464;80;20895;-87
2021/07/20 04:51:19;;;;;;;;;;;;;;;17.92;73.71;98196.05;1770957;80;25935;-87
2021/07/20 04:53:45;;;;;;;;;;;;;;;17.96;73.66;98199.55;1770739;80;24784;-87
2021/07/20 04:56:12;;;;;;;;;;;;;;;17.96;73.62;98199.55;1771363;80;20237;-87
2021/07/20 04:58:38;;;;;;;;;;;;;;;17.94;73.59;98206.84;1768361;80;25139;-87
2021/07/20 05:01:05;;;;;;;;;;;;;;;17.92;73.57;98208.80;1772222;80;22209;-88
2021/07/20 05:03:33;;;;;;;;;;;;;;;17.84;73.54;98202.13;1773368;80;25973;-87
2021/07/20 05:06:00;;;;;;;;;;;;;;;17.89;73.52;98214.40;1773027;80;24423;-87
2021/07/20 05:08:27;;;;;;;;;;;;;;;17.83;73.47;98207.12;1739952;81;20206;-87
2021/07/20 05:10:55;;;;;;;;;;;;;;;17.73;73.42;98193.14;1775566;80;25888;-87
2021/07/20 05:13:22;;;;;;;;;;;;;;;17.67;73.36;98190.33;1774278;80;21937;-87
2021/07/20 05:15:59;;;;;;;;;;;;;;;17.63;73.35;98199.05;1771858;79;26097;-87
2021/07/20 05:18:25;;;;;;;;;;;;;;;17.64;73.32;98197.23;1772387;80;24529;-87
2021/07/20 05:20:53;;;;;;;;;;;;;;;17.66;73.33;98198.75;1774012;80;20436;-87
2021/07/20 05:23:20;;;;;;;;;;;;;;;17.74;73.35;98197.45;1768402;80;25676;-87
2021/07/20 05:25:47;;;;;;;;;;;;;;;17.79;73.39;98206.23;1771114;80;22209;-87
2021/07/20 05:28:16;;;;;;;;;;;;;;;17.87;73.41;98213.75;1771588;79;26683;-87
2021/07/20 05:30:43;;;;;;;;;;;;;;;17.95;73.39;98212.94;1770148;80;25313;-87
2021/07/20 05:33:10;;;;;;;;;;;;;;;17.94;73.34;98213.46;1764228;81;20352;-87
2021/07/20 05:35:36;;;;;;;;;;;;;;;17.92;73.29;98215.42;1762791;81;25000;-87
2021/07/20 05:38:02;;;;;;;;;;;;;;;17.94;73.22;98221.41;1763380;81;20768;-86
2021/07/20 05:40:28;;;;;;;;;;;;;;;17.98;73.17;98221.91;1764181;81;26014;-87
2021/07/20 05:42:57;;;;;;;;;;;;;;;18.01;73.14;98225.55;1763097;81;24385;-87
2021/07/20 05:45:26;;;;;;;;;;;;;;;18.08;73.10;98217.80;1763743;80;20258;-86
2021/07/20 05:47:56;;;;;;;;;;;;;;;18.02;73.05;98215.78;1758246;81;25073;-86
2021/07/20 05:50:22;;;;;;;;;;;;;;;18.04;73.01;98214.65;1760178;81;23777;-87
2021/07/20 05:52:49;;;;;;;;;;;;;;;18.11;73.01;98221.47;1739516;81;26041;-87
2021/07/20 05:55:17;;;;;;;;;;;;;;;18.18;73.01;98221.14;1766338;79;24403;-86
2021/07/20 05:57:48;;;;;;;;;;;;;;;18.22;72.99;98220.66;1757793;81;20583;-87
2021/07/20 06:00:16;;;;;;;;;;;;;;;18.28;72.94;98218.70;1761835;81;24952;-86
2021/07/20 06:02:42;;;;;;;;;;;;;;;18.32;72.88;98227.17;1763051;81;21968;-87
2021/07/20 06:05:16;;;;;;;;;;;;;;;18.33;72.80;98227.48;1764291;81;26212;-86
2021/07/20 06:07:43;;;;;;;;;;;;;;;18.37;72.76;98236.30;1763319;81;24399;-86
2021/07/20 06:10:10;;;;;;;;;;;;;;;18.47;72.71;98242.78;1763491;81;20316;-87
2021/07/20 06:12:36;;;;;;;;;;;;;;;18.56;72.64;98244.98;1762101;80;25717;-87
2021/07/20 06:15:04;;;;;;;;;;;;;;;18.56;72.60;98241.83;1760891;79;20285;-87
2021/07/20 06:17:32;;;;;;;;;;;;;;;18.52;72.52;98246.27;1764145;80;26746;-87
2021/07/20 06:19:59;;;;;;;;;;;;;;;18.53;72.46;98247.93;1762159;81;24424;-87
2021/07/20 06:22:34;;;;;;;;;;;;;;;18.62;72.46;98248.31;1760361;81;20227;-87
2021/07/20 06:25:01;;;;;;;;;;;;;;;18.64;72.44;98248.50;1761159;81;25024;-87
2021/07/20 06:27:28;;;;;;;;;;;;;;;18.73;72.41;98254.63;1764111;81;22002;-87
2021/07/20 06:29:54;;;;;;;;;;;;;;;18.78;72.35;98250.99;1760758;80;26081;-87
2021/07/20 06:32:21;;;;;;;;;;;;;;;18.83;72.27;98253.15;1762794;80;24397;-87
2021/07/20 06:34:48;;;;;;;;;;;;;;;18.85;72.19;98255.98;1760626;79;20287;-87
2021/07/20 06:37:14;;;;;;;;;;;;;;;18.87;72.11;98263.29;1766450;81;24978;-87
2021/07/20 06:39:41;;;;;;;;;;;;;;;18.84;72.02;98256.14;1759410;81;21997;-87
2021/07/20 06:42:09;;;;;;;;;;;;;;;18.86;71.93;98252.84;1762536;81;26913;-87
2021/07/20 06:44:36;;;;;;;;;;;;;;;18.90;71.85;98254.16;1763246;79;24412;-87
2021/07/20 06:47:03;;;;;;;;;;;;;;;18.94;71.79;98260.30;1762662;81;20219;-87
2021/07/20 06:49:29;;;;;;;;;;;;;;;18.96;71.75;98252.19;1763374;81;24980;-87
2021/07/20 06:51:55;;;;;;;;;;;;;;;19.00;71.72;98252.18;1763780;81;22009;-87
2021/07/20 06:54:21;;;;;;;;;;;;;;;19.06;71.72;98251.03;1765609;81;20969;-87
2021/07/20 06:56:52;;;;;;;;;;;;;;;19.19;71.67;98253.20;1766239;79;20252;-87
2021/07/20 06:59:19;;;;;;;;;;;;;;;19.23;71.62;98250.55;1758169;81;20231;-87
2021/07/20 07:01:46;;;;;;;;;;;;;;;19.27;71.54;98257.66;1764587;81;25038;-87
2021/07/20 07:04:21;;;;;;;;;;;;;;;19.25;71.46;98251.22;1763967;81;21905;-87
2021/07/20 07:06:51;;;;;;;;;;;;;;;19.27;71.37;98246.55;1763657;81;26044;-87
2021/07/20 07:09:18;;;;;;;;;;;;;;;19.36;71.26;98246.06;1762839;81;24440;-87
2021/07/20 07:11:44;;;;;;;;;;;;;;;19.39;71.19;98235.94;1762961;81;20281;-87
2021/07/20 07:14:11;;;;;;;;;;;;;;;19.41;71.05;98226.00;1763413;81;24990;-87
2021/07/20 07:16:39;;;;;;;;;;;;;;;19.42;70.93;98235.59;1730588;81;21940;-86
2021/07/20 07:19:08;;;;;;;;;;;;;;;19.36;70.81;98234.96;1763136;81;25442;-86
2021/07/20 07:21:36;;;;;;;;;;;;;;;19.32;70.67;98225.66;1763697;81;24744;-86
2021/07/20 07:24:02;;;;;;;;;;;;;;;19.38;70.65;98225.48;1765083;80;20194;-87
2021/07/20 07:26:28;;;;;;;;;;;;;;;19.38;70.58;98217.52;1758058;79;25006;-87
2021/07/20 07:28:55;;;;;;;;;;;;;;;19.30;70.47;98217.55;1759861;79;22040;-87
2021/07/20 07:31:21;;;;;;;;;;;;;;;19.20;70.34;98223.03;1761563;81;26685;-87
2021/07/20 07:33:48;;;;;;;;;;;;;;;19.13;70.15;98216.72;1761187;80;24436;-87
2021/07/20 07:36:16;;;;;;;;;;;;;;;19.28;70.15;98217.70;1763025;81;20324;-87
2021/07/20 07:38:50;;;;;;;;;;;;;;;19.36;70.13;98222.19;1760973;80;25718;-87
2021/07/20 07:41:24;;;;;;;;;;;;;;;19.45;70.16;98219.38;1762135;79;21980;-87
2021/07/20 07:43:52;;;;;;;;;;;;;;;19.64;70.21;98224.30;1758878;81;26199;-87
2021/07/20 07:46:19;;;;;;;;;;;;;;;19.77;70.18;98229.59;1761452;81;24419;-87
2021/07/20 07:48:45;;;;;;;;;;;;;;;19.75;70.03;98227.59;1762796;81;20160;-87
2021/07/20 07:51:11;;;;;;;;;;;;;;;19.75;69.94;98220.95;1760482;81;25058;-87
2021/07/20 07:53:39;;;;;;;;;;;;;;;19.87;69.87;98216.45;1759358;81;22046;-87
2021/07/20 07:56:09;;;;;;;;;;;;;;;19.95;69.86;98212.45;1762865;81;25987;-87
2021/07/20 07:58:41;;;;;;;;;;;;;;;20.01;69.77;98214.43;1756086;79;25201;-87
2021/07/20 08:01:05;;;;;;;;;;;;;;;19.93;69.55;98207.80;1757020;81;20313;-87
2021/07/20 08:03:32;;;;;;;;;;;;;;;20.04;69.45;98214.07;1761011;80;24951;-87
2021/07/20 08:06:08;;;;;;;;;;;;;;;20.09;69.37;98211.39;1764142;81;21949;-87
2021/07/20 08:08:35;;;;;;;;;;;;;;;20.12;69.28;98211.89;1761233;81;26115;-87
2021/07/20 08:11:02;;;;;;;;;;;;;;;20.10;69.21;98199.27;1762197;81;24686;-87
2021/07/20 08:13:29;;;;;;;;;;;;;;;20.26;69.14;98218.30;1760145;81;20324;-87
2021/07/20 08:15:56;;;;;;;;;;;;;;;20.32;69.08;98222.45;1759380;81;25385;-87
2021/07/20 08:18:23;;;;;;;;;;;;;;;20.46;68.97;98228.84;1762342;81;22053;-87
2021/07/20 08:21:16;;;;;;;;;;;;;;;20.61;68.96;98224.96;1762560;81;25526;-87
2021/07/20 08:23:23;;;;;;;;;;;;;;;20.73;68.87;98224.89;1751329;81;24458;-87
2021/07/20 08:25:50;;;;;;;;;;;;;;;20.79;68.77;98224.99;1763839;81;20903;-87
2021/07/20 08:28:39;;;;;;;;;;;;;;;20.92;68.71;98221.75;1760776;81;25038;-87
2021/07/20 08:31:05;;;;;;;;;;;;;;;21.01;68.61;98224.67;1761743;81;22101;-87
2021/07/20 08:33:34;;;;;;;;;;;;;;;21.12;68.42;98222.92;1762780;80;25491;-87
2021/07/20 08:36:02;;;;;;;;;;;;;;;21.22;68.26;98224.86;1761042;80;24456;-87
2021/07/20 08:38:30;;;;;;;;;;;;;;;21.28;68.07;98216.16;1762599;81;20230;-87
2021/07/20 08:40:58;;;;;;;;;;;;;;;21.32;67.92;98221.14;1758124;79;25129;-87
2021/07/20 08:43:25;;;;;;;;;;;;;;;21.32;67.74;98215.81;1762004;81;22964;-87
2021/07/20 08:46:05;;;;;;;;;;;;;;;21.29;67.53;98220.98;1761035;81;25985;-87
2021/07/20 08:48:48;;;;;;;;;;;;;;;21.21;67.27;98218.41;1763018;81;24443;-87
2021/07/20 08:51:18;;;;;;;;;;;;;;;21.25;67.10;98223.19;1762268;80;20242;-87
2021/07/20 08:53:46;;;;;;;;;;;;;;;21.25;66.87;98225.84;1762889;81;24963;-87
2021/07/20 08:56:12;;;;;;;;;;;;;;;21.07;66.56;98221.30;1762458;81;22005;-87
2021/07/20 08:58:40;;;;;;;;;;;;;;;21.17;66.46;98207.77;1760696;81;25963;-87
2021/07/20 09:01:17;;;;;;;;;;;;;;;21.37;66.42;98217.43;1762540;81;24430;-87
2021/07/20 09:03:58;;;;;;;;;;;;;;;21.47;66.39;98219.33;1760795;81;20202;-87
2021/07/20 09:06:35;;;;;;;;;;;;;;;21.62;66.42;98223.66;1762884;81;25027;-87
2021/07/20 09:09:04;;;;;;;;;;;;;;;21.74;66.41;98222.71;1763162;81;21958;-87
2021/07/20 09:11:32;;;;;;;;;;;;;;;21.86;66.33;98227.09;1763671;81;26186;-87
2021/07/20 09:14:02;;;;;;;;;;;;;;;21.94;66.22;98223.84;1761989;80;24511;-87
2021/07/20 09:16:32;;;;;;;;;;;;;;;22.07;66.05;98217.37;1760009;81;20536;-87
2021/07/20 09:19:15;;;;;;;;;;;;;;;22.18;65.88;98226.74;1763406;81;25585;-87
2021/07/20 09:21:45;;;;;;;;;;;;;;;22.37;65.83;98225.31;1760931;81;22881;-87
2021/07/20 09:24:31;;;;;;;;;;;;;;;22.57;65.71;98224.23;1762307;81;26759;-87
2021/07/20 09:27:05;;;;;;;;;;;;;;;22.79;65.65;98227.28;1760256;81;24449;-87
2021/07/20 09:29:31;;;;;;;;;;;;;;;22.97;65.50;98224.98;1761792;81;20214;-87
2021/07/20 09:32:11;;;;;;;;;;;;;;;23.07;65.34;98221.52;1761922;80;25743;-87
2021/07/20 09:34:57;;;;;;;;;;;;;;;22.98;65.02;98215.97;1758448;81;22312;-87
2021/07/20 09:37:25;;;;;;;;;;;;;;;23.00;64.82;98217.12;1761879;81;25326;-88
2021/07/20 09:40:09;;;;;;;;;;;;;;;22.99;64.64;98219.47;1762858;81;24386;-87
2021/07/20 09:42:46;;;;;;;;;;;;;;;22.94;64.37;98211.53;1759688;81;20251;-87
2021/07/20 09:45:17;;;;;;;;;;;;;;;22.91;64.01;98217.23;1761036;81;25609;-87
2021/07/20 09:47:56;;;;;;;;;;;;;;;22.83;63.65;98215.20;1760656;81;23266;-87
2021/07/20 09:50:23;;;;;;;;;;;;;;;22.75;63.28;98210.80;1762022;81;26059;-87
2021/07/20 09:53:08;;;;;;;;;;;;;;;22.67;62.87;98212.24;1761416;81;24493;-87
2021/07/20 09:55:36;;;;;;;;;;;;;;;22.81;62.71;98207.38;1762338;81;20163;-87
2021/07/20 09:58:22;;;;;;;;;;;;;;;23.02;62.52;98211.89;1761617;81;25032;-87
2021/07/20 10:00:52;;;;;;;;;;;;;;;23.05;62.27;98207.52;1762134;81;22192;-87
2021/07/20 10:03:25;;;;;;;;;;;;;;;23.19;62.05;98202.59;1737429;81;26671;-87
2021/07/20 10:05:53;;;;;;;;;;;;;;;23.40;61.93;98196.42;1762330;81;24528;-87
2021/07/20 10:08:25;;;;;;;;;;;;;;;23.53;61.72;98195.20;1764403;79;20229;-87
2021/07/20 10:10:53;;;;;;;;;;;;;;;23.55;61.36;98190.50;1758705;80;24972;-87
2021/07/20 10:13:33;;;;;;;;;;;;;;;23.61;61.18;98189.72;1758704;81;22158;-87
2021/07/20 10:16:09;;;;;;;;;;;;;;;23.71;61.08;98187.52;1760525;80;26720;-87
2021/07/20 10:18:51;;;;;;;;;;;;;;;23.75;60.88;98186.61;1761212;81;25097;-87
2021/07/20 10:21:19;;;;;;;;;;;;;;;23.66;60.59;98186.45;1760627;79;20294;-87
2021/07/20 10:23:55;;;;;;;;;;;;;;;23.60;60.39;98181.89;1764674;81;25086;-87
2021/07/20 10:26:31;;;;;;;;;;;;;;;23.58;60.23;98188.76;1763093;81;21958;-87
2021/07/20 10:29:17;;;;;;;;;;;;;;;23.52;60.08;98181.52;1761896;81;26144;-87
2021/07/20 10:31:54;;;;;;;;;;;;;;;23.36;59.81;98179.11;1760733;81;24746;-87
2021/07/20 10:34:27;;;;;;;;;;;;;;;23.21;59.52;98182.39;1763380;80;20206;-87
2021/07/20 10:37:04;;;;;;;;;;;;;;;23.16;59.33;98186.15;1763373;81;25056;-87
2021/07/20 10:39:50;;;;;;;;;;;;;;;23.18;59.21;98177.45;1762898;81;22153;-87
2021/07/20 10:42:24;;;;;;;;;;;;;;;23.28;59.09;98166.75;1763788;81;26103;-87
2021/07/20 10:45:10;;;;;;;;;;;;;;;23.34;58.84;98166.48;1762999;81;24677;-87
2021/07/20 10:47:53;;;;;;;;;;;;;;;23.48;58.72;98165.58;1763161;81;20309;-86
2021/07/20 10:50:21;;;;;;;;;;;;;;;23.50;58.47;98169.39;1761898;81;25090;-87
2021/07/20 10:52:59;;;;;;;;;;;;;;;23.40;58.20;98163.55;1734050;80;22918;-86
2021/07/20 10:55:43;;;;;;;;;;;;;;;23.23;57.84;98165.17;1758668;81;26732;-87
2021/07/20 10:58:17;;;;;;;;;;;;;;;23.20;57.69;98170.05;1763799;79;25178;-87
2021/07/20 11:00:45;;;;;;;;;;;;;;;23.22;57.55;98163.52;1759935;81;20234;-86
2021/07/20 11:03:23;;;;;;;;;;;;;;;23.28;57.57;98161.41;1762075;81;25034;-87
2021/07/20 11:05:50;;;;;;;;;;;;;;;23.26;57.53;98158.60;1759982;81;22011;-86
2021/07/20 11:08:17;;;;;;;;;;;;;;;23.39;57.57;98158.71;1760303;81;25964;-87
2021/07/20 11:10:47;;;;;;;;;;;;;;;23.48;57.45;98157.56;1764161;81;24394;-87
2021/07/20 11:13:15;;;;;;;;;;;;;;;23.51;57.37;98150.48;1764006;79;20462;-86
2021/07/20 11:15:51;;;;;;;;;;;;;;;23.54;57.26;98148.77;1757241;80;21954;-86
2021/07/20 11:18:14;;;;;;;;;;;;;;;23.47;57.04;98146.55;1762008;81;22011;-87
2021/07/20 11:20:46;;;;;;;;;;;;;;;23.35;56.79;98154.25;1758705;81;26068;-86
2021/07/20 11:23:15;;;;;;;;;;;;;;;23.24;56.68;98152.62;1760895;81;24719;-86
2021/07/20 11:25:41;;;;;;;;;;;;;;;23.13;56.64;98149.97;1762278;81;20233;-87
2021/07/20 11:28:07;;;;;;;;;;;;;;;23.08;56.66;98155.06;1764284;81;20282;-86
2021/07/20 11:30:35;;;;;;;;;;;;;;;23.05;56.68;98158.64;1760965;81;22017;-86
2021/07/20 11:33:03;;;;;;;;;;;;;;;22.92;56.65;98162.84;1762158;81;26092;-87
2021/07/20 11:35:30;;;;;;;;;;;;;;;22.79;56.46;98164.58;1761132;81;25346;-87
2021/07/20 11:38:08;;;;;;;;;;;;;;;22.70;56.31;98166.50;1763579;81;20449;-87
2021/07/20 11:40:38;;;;;;;;;;;;;;;22.61;56.26;98164.98;1760155;80;25088;-86
2021/07/20 11:43:09;;;;;;;;;;;;;;;22.53;56.24;98161.08;1763046;81;22656;-87
2021/07/20 11:45:55;;;;;;;;;;;;;;;22.49;56.20;98157.98;1765194;81;26148;-87
2021/07/20 11:48:31;;;;;;;;;;;;;;;22.45;56.16;98155.88;1762974;81;24502;-86
2021/07/20 11:51:00;;;;;;;;;;;;;;;22.40;56.12;98159.13;1764593;81;20143;-86
2021/07/20 11:53:31;;;;;;;;;;;;;;;22.38;56.09;98156.31;1763060;81;24990;-86
2021/07/20 11:55:59;;;;;;;;;;;;;;;22.39;56.07;98153.97;1708927;81;22096;-86
2021/07/20 11:58:30;;;;;;;;;;;;;;;22.44;56.09;98149.72;1761503;81;26213;-86
2021/07/20 12:01:02;;;;;;;;;;;;;;;22.53;56.19;98151.24;1731922;81;24419;-86
2021/07/20 12:03:34;;;;;;;;;;;;;;;22.69;56.24;98154.20;1759793;81;20257;-86
2021/07/20 12:06:10;;;;;;;;;;;;;;;22.91;56.42;98155.84;1735572;81;20265;-86
2021/07/20 12:08:44;;;;;;;;;;;;;;;23.04;56.40;98152.98;1765599;81;22171;-86
2021/07/20 12:11:12;;;;;;;;;;;;;;;23.16;56.31;98146.11;1712847;83;26000;-86
2021/07/20 12:13:39;;;;;;;;;;;;;;;23.31;56.17;98152.17;1762710;81;24514;-86
2021/07/20 12:16:10;;;;;;;;;;;;;;;23.49;56.00;98144.53;1761916;81;20309;-86
2021/07/20 12:18:47;;;;;;;;;;;;;;;23.58;55.80;98143.84;1758166;81;24949;-86
2021/07/20 12:21:17;;;;;;;;;;;;;;;23.74;55.71;98143.53;1761811;81;22073;-86
2021/07/20 12:23:51;;;;;;;;;;;;;;;23.66;55.44;98144.53;1761892;81;26061;-86
2021/07/20 12:26:16;;;;;;;;;;;;;;;23.63;55.33;98141.41;1760977;81;24386;-86
2021/07/20 12:28:42;;;;;;;;;;;;;;;23.69;55.18;98138.78;1767942;81;20567;-86
2021/07/20 12:31:14;;;;;;;;;;;;;;;23.71;54.91;98134.08;1767224;80;25012;-87
2021/07/20 12:33:41;;;;;;;;;;;;;;;23.67;54.69;98136.84;1760414;81;22612;-86
2021/07/20 12:36:09;;;;;;;;;;;;;;;23.55;54.37;98136.23;1758850;81;26132;-86
2021/07/20 12:38:42;;;;;;;;;;;;;;;23.61;54.34;98135.45;1702929;84;25355;-86
2021/07/20 12:41:11;;;;;;;;;;;;;;;23.69;54.31;98135.28;1732165;82;20212;-86
2021/07/20 12:43:39;;;;;;;;;;;;;;;23.86;54.37;98141.95;1732696;82;24825;-86
2021/07/20 12:46:20;;;;;;;;;;;;;;;23.89;54.32;98140.74;1730939;82;22229;-86
2021/07/20 12:48:55;;;;;;;;;;;;;;;23.91;54.28;98138.68;1696283;83;26196;-86
2021/07/20 12:51:22;;;;;;;;;;;;;;;23.91;54.22;98141.35;1722838;83;24496;-86
2021/07/20 12:53:57;;;;;;;;;;;;;;;23.81;54.12;98140.39;1733637;82;20331;-86
2021/07/20 12:56:30;;;;;;;;;;;;;;;23.70;54.05;98136.43;1702974;82;25101;-86
2021/07/20 12:58:58;;;;;;;;;;;;;;;23.58;53.96;98146.52;1702086;82;22094;-87
2021/07/20 13:01:25;;;;;;;;;;;;;;;23.53;53.97;98144.44;1703044;84;26092;-86
2021/07/20 13:03:51;;;;;;;;;;;;;;;23.40;53.90;98144.34;1701315;84;24518;-86
2021/07/20 13:06:18;;;;;;;;;;;;;;;23.32;53.90;98139.97;1703659;82;20263;-86
2021/07/20 13:08:45;;;;;;;;;;;;;;;23.34;53.97;98135.77;1704299;82;25051;-86